Time;durP1;ratioP1;P1;durP2;ratioP2;P2;SDS_P1;SDS_P2;PMS_P1;PMS_P2;Temp;Humidity;BMP_temperature;BMP_pressure;BME280_temperature;BME280_humidity;BME280_pressure;Samples;Min_cycle;Max_cycle;Signal;HPM_P1;HPM_P2
2023/08/30 00:00:57;;;;;;;14.20;5.90;;;;;;;29.89;34.10;101117.63;5088305;28;20028;-46
2023/08/30 00:03:23;;;;;;;14.32;5.60;;;;;;;29.87;35.60;101117.13;5088843;28;20062;-45
2023/08/30 00:05:49;;;;;;;10.48;5.35;;;;;;;29.62;34.56;101114.13;5072562;28;20036;-44
2023/08/30 00:08:19;;;;;;;11.90;5.47;;;;;;;29.80;34.43;101106.59;5092923;28;20024;-44
2023/08/30 00:10:46;;;;;;;7.43;5.28;;;;;;;29.43;34.57;101111.69;5092941;28;20074;-57
2023/08/30 00:13:12;;;;;;;12.30;5.60;;;;;;;29.35;34.56;101108.94;5093030;28;20039;-47
2023/08/30 00:15:38;;;;;;;8.32;5.28;;;;;;;29.50;34.00;101110.38;5094554;28;20024;-49
2023/08/30 00:18:05;;;;;;;10.88;5.43;;;;;;;29.25;35.53;101112.03;5094201;28;20525;-45
2023/08/30 00:20:32;;;;;;;7.95;5.32;;;;;;;29.28;35.39;101094.84;5094222;28;20059;-48
2023/08/30 00:22:58;;;;;;;10.75;6.20;;;;;;;28.91;35.21;101099.84;5074222;28;20478;-46
2023/08/30 00:25:24;;;;;;;8.68;5.07;;;;;;;28.94;35.31;101099.25;5093840;28;20016;-48
2023/08/30 00:27:51;;;;;;;10.75;5.35;;;;;;;29.03;35.80;101099.22;5094307;28;20486;-47
2023/08/30 00:30:17;;;;;;;9.10;5.30;;;;;;;28.87;36.39;101096.09;5093772;28;20092;-45
2023/08/30 00:32:44;;;;;;;9.57;5.05;;;;;;;28.61;36.04;101093.34;5086474;28;20074;-43
2023/08/30 00:35:10;;;;;;;9.95;5.20;;;;;;;28.39;36.67;101102.53;5073261;28;20467;-43
2023/08/30 00:37:37;;;;;;;11.40;5.50;;;;;;;28.22;37.38;101100.50;5086974;28;20039;-43
2023/08/30 00:40:03;;;;;;;10.15;4.85;;;;;;;28.11;37.70;101094.47;5088367;28;20027;-44
2023/08/30 00:42:29;;;;;;;9.98;5.65;;;;;;;27.96;38.00;101088.56;5095763;28;20039;-43
2023/08/30 00:44:56;;;;;;;10.90;6.10;;;;;;;28.16;38.20;101090.75;5114308;28;20136;-42
2023/08/30 00:47:22;;;;;;;12.18;5.22;;;;;;;27.91;38.24;101091.47;5088698;28;20016;-43
2023/08/30 00:49:49;;;;;;;10.63;5.45;;;;;;;28.01;39.92;101086.50;5093403;28;20024;-44
2023/08/30 00:52:15;;;;;;;10.02;5.97;;;;;;;27.87;38.22;101088.53;5093208;28;20510;-43
2023/08/30 00:54:42;;;;;;;8.10;5.47;;;;;;;27.95;38.25;101086.94;5094205;28;20020;-42
2023/08/30 00:57:09;;;;;;;9.88;5.13;;;;;;;28.08;38.64;101083.28;5091533;28;20477;-42
2023/08/30 00:59:36;;;;;;;11.10;5.40;;;;;;;28.05;39.13;101081.97;5093501;28;20027;-42
2023/08/30 01:02:04;;;;;;;14.73;6.32;;;;;;;27.60;39.71;101084.00;5100608;28;20173;-41
2023/08/30 01:04:30;;;;;;;12.60;5.72;;;;;;;27.80;40.53;101077.97;5089849;28;20032;-43
2023/08/30 01:06:58;;;;;;;13.20;5.97;;;;;;;27.95;40.79;101084.19;5092504;28;20031;-41
2023/08/30 01:09:24;;;;;;;11.93;6.40;;;;;;;27.97;40.47;101080.00;5093743;28;20497;-42
2023/08/30 01:12:37;;;;;;;8.52;4.88;;;;;;;27.96;41.06;101081.13;5092838;28;20125;-42
2023/08/30 01:15:14;;;;;;;11.70;5.07;;;;;;;27.86;41.10;101084.97;4991519;28;20058;-43
2023/08/30 01:17:45;;;;;;;9.63;5.13;;;;;;;27.86;40.73;101075.91;4995678;28;20509;-43
2023/08/30 01:20:16;;;;;;;9.80;5.20;;;;;;;27.97;40.84;101081.94;5037895;28;20074;-43
2023/08/30 01:23:01;;;;;;;13.02;5.30;;;;;;;28.01;41.28;101078.22;5072859;28;20031;-43
2023/08/30 01:25:54;;;;;;;12.98;5.20;;;;;;;27.89;41.53;101075.28;5081834;28;20033;-43
2023/08/30 01:28:23;;;;;;;11.50;5.53;;;;;;;27.88;41.35;101079.16;5072872;28;20024;-43
2023/08/30 01:30:54;;;;;;;11.15;5.45;;;;;;;27.78;41.95;101073.94;5085137;28;20478;-45
2023/08/30 01:33:21;;;;;;;12.75;5.85;;;;;;;27.66;41.57;101070.94;5092906;28;20035;-43
2023/08/30 01:35:48;;;;;;;10.75;5.60;;;;;;;27.62;41.82;101071.56;5092921;28;20109;-43
2023/08/30 01:38:16;;;;;;;10.10;5.03;;;;;;;27.74;41.50;101061.94;5104040;28;20135;-43
2023/08/30 01:40:45;;;;;;;13.52;5.88;;;;;;;27.73;41.82;101063.06;5113574;28;20419;-46
2023/08/30 01:43:12;;;;;;;12.73;5.22;;;;;;;27.65;41.53;101059.09;5092530;28;20025;-43
2023/08/30 01:45:43;;;;;;;10.82;5.38;;;;;;;27.41;42.26;101066.88;5072697;28;20108;-43
2023/08/30 01:48:14;;;;;;;9.27;5.07;;;;;;;27.44;42.07;101058.84;5086578;28;20019;-43
2023/08/30 01:50:42;;;;;;;10.98;5.40;;;;;;;27.50;42.18;101063.06;5100153;28;20047;-43
2023/08/30 01:53:10;;;;;;;9.98;6.18;;;;;;;27.31;41.93;101059.69;5092763;28;20140;-43
2023/08/30 01:55:37;;;;;;;11.15;5.47;;;;;;;27.26;42.04;101057.91;5092704;28;20031;-42
2023/08/30 01:58:04;;;;;;;11.80;5.80;;;;;;;27.20;42.78;101058.34;5092943;28;20531;-43
2023/08/30 02:00:31;;;;;;;9.88;5.25;;;;;;;27.10;41.96;101060.22;5074598;28;20383;-44
2023/08/30 02:02:57;;;;;;;8.65;4.50;;;;;;;27.29;43.06;101050.97;5075978;28;20332;-43
2023/08/30 02:05:23;;;;;;;12.00;6.05;;;;;;;27.24;43.41;101065.66;5082156;28;20082;-43
2023/08/30 02:08:06;;;;;;;11.93;5.70;;;;;;;27.29;43.33;101061.97;5088066;28;20035;-43
2023/08/30 02:10:35;;;;;;;11.07;6.28;;;;;;;27.25;43.87;101058.22;5087704;28;20020;-46
2023/08/30 02:13:05;;;;;;;12.90;6.32;;;;;;;26.96;44.10;101053.94;5084313;28;20657;-43
2023/08/30 02:15:33;;;;;;;9.75;5.45;;;;;;;27.14;43.80;101054.09;5092453;28;20053;-43
2023/08/30 02:18:00;;;;;;;16.73;6.47;;;;;;;26.45;45.58;101060.56;5088231;28;20092;-41
2023/08/30 02:20:26;;;;;;;13.90;6.57;;;;;;;26.53;45.67;101059.03;5077877;28;20457;-43
2023/08/30 02:22:52;;;;;;;11.32;6.22;;;;;;;26.47;45.71;101054.78;5082339;28;20024;-42
2023/08/30 02:25:23;;;;;;;15.35;6.05;;;;;;;26.35;46.22;101048.97;5088542;28;20115;-44
2023/08/30 02:27:50;;;;;;;12.93;6.10;;;;;;;26.22;46.83;101051.44;5069041;28;20078;-42
2023/08/30 02:30:16;;;;;;;13.10;5.85;;;;;;;26.17;47.11;101051.53;5090585;28;20082;-43
2023/08/30 02:32:42;;;;;;;15.85;6.50;;;;;;;25.87;47.82;101055.69;5090901;28;20024;-43
2023/08/30 02:35:09;;;;;;;12.50;6.47;;;;;;;25.63;48.61;101055.00;5083617;28;20024;-43
2023/08/30 02:37:35;;;;;;;11.23;5.80;;;;;;;25.52;47.22;101046.97;5071645;28;20542;-43
2023/08/30 02:40:01;;;;;;;12.10;6.28;;;;;;;25.45;47.05;101049.28;5071120;28;20036;-43
2023/08/30 02:42:29;;;;;;;10.82;5.75;;;;;;;25.39;46.84;101050.50;5081301;28;20029;-44
2023/08/30 02:44:55;;;;;;;10.15;5.93;;;;;;;25.06;47.60;101051.59;5091927;28;20031;-44
2023/08/30 02:47:21;;;;;;;14.63;5.60;;;;;;;25.05;48.04;101053.50;5091734;28;20024;-43
2023/08/30 02:49:47;;;;;;;12.50;5.47;;;;;;;25.15;47.75;101049.78;5091264;28;20051;-43
2023/08/30 02:52:14;;;;;;;12.10;6.10;;;;;;;24.82;48.34;101055.22;5091594;28;20095;-43
2023/08/30 02:54:42;;;;;;;12.18;6.03;;;;;;;24.66;48.88;101053.81;5090582;28;20409;-44
2023/08/30 02:57:08;;;;;;;16.60;6.47;;;;;;;24.87;48.87;101049.63;5097220;28;20124;-44
2023/08/30 02:59:35;;;;;;;10.93;5.82;;;;;;;24.81;48.81;101056.31;5086923;28;20032;-43
2023/08/30 03:02:01;;;;;;;14.00;6.55;;;;;;;24.47;50.27;101046.38;5071377;28;20115;-44
2023/08/30 03:04:27;;;;;;;15.35;6.68;;;;;;;24.41;50.92;101049.47;5074684;28;20462;-44
2023/08/30 03:06:54;;;;;;;17.80;6.50;;;;;;;24.22;52.21;101052.97;5071382;28;20040;-44
2023/08/30 03:09:20;;;;;;;20.05;6.95;;;;;;;24.18;52.25;101049.19;5071093;28;20020;-45
2023/08/30 03:11:46;;;;;;;13.23;6.55;;;;;;;24.15;52.26;101054.41;5071600;28;20423;-44
2023/08/30 03:14:13;;;;;;;15.75;6.82;;;;;;;23.89;53.26;101053.91;5073579;28;20025;-43
2023/08/30 03:16:39;;;;;;;13.75;5.75;;;;;;;23.87;53.50;101051.44;5084770;28;20059;-44
2023/08/30 03:19:06;;;;;;;12.95;6.18;;;;;;;23.83;53.67;101060.53;5070881;28;20120;-44
2023/08/30 03:21:32;;;;;;;14.13;6.18;;;;;;;23.82;54.27;101057.00;5071165;28;20471;-43
2023/08/30 03:23:58;;;;;;;12.77;6.03;;;;;;;23.70;54.68;101060.09;5071199;28;20044;-43
2023/08/30 03:26:25;;;;;;;12.00;6.55;;;;;;;23.77;55.01;101061.69;5071003;28;20094;-43
2023/08/30 03:28:51;;;;;;;10.50;5.53;;;;;;;23.62;55.41;101055.25;5072180;28;20063;-44
2023/08/30 03:31:19;;;;;;;11.70;6.28;;;;;;;23.59;55.82;101068.66;5087473;28;20109;-43
2023/08/30 03:33:46;;;;;;;15.57;6.82;;;;;;;23.50;56.60;101076.66;5090880;28;20034;-43
2023/08/30 03:36:14;;;;;;;16.55;7.07;;;;;;;23.49;56.87;101076.97;5087868;28;20028;-42
2023/08/30 03:38:41;;;;;;;12.57;6.82;;;;;;;23.50;56.81;101078.59;5091004;28;20024;-43
2023/08/30 03:41:08;;;;;;;12.90;6.07;;;;;;;23.48;57.03;101078.03;5107505;28;20043;-43
2023/08/30 03:43:35;;;;;;;13.07;7.05;;;;;;;23.53;57.11;101075.25;5113950;28;20112;-42
2023/08/30 03:46:02;;;;;;;18.58;7.07;;;;;;;23.45;57.43;101082.97;5115519;28;20802;-44
2023/08/30 03:48:30;;;;;;;11.70;6.70;;;;;;;23.30;58.10;101083.09;5101388;28;20118;-43
2023/08/30 03:50:57;;;;;;;13.88;7.53;;;;;;;23.31;58.59;101084.72;5095138;28;20032;-42
2023/08/30 03:53:24;;;;;;;21.17;7.88;;;;;;;23.12;59.55;101091.97;5094817;28;20137;-43
2023/08/30 03:55:51;;;;;;;15.65;7.57;;;;;;;22.99;60.40;101096.19;5094908;28;20097;-43
2023/08/30 03:58:18;;;;;;;13.93;7.15;;;;;;;22.92;60.49;101095.66;5094698;28;20028;-43
2023/08/30 04:00:45;;;;;;;13.90;7.45;;;;;;;22.94;60.67;101090.75;5094976;28;20024;-43
2023/08/30 04:03:14;;;;;;;20.83;7.75;;;;;;;22.91;60.37;101099.47;5094846;28;20032;-43
2023/08/30 04:05:41;;;;;;;15.85;7.30;;;;;;;22.88;60.17;101098.16;5093933;28;20032;-43
2023/08/30 04:08:08;;;;;;;12.75;6.75;;;;;;;22.81;60.01;101091.31;5089090;28;20506;-43
2023/08/30 04:10:42;;;;;;;16.27;8.13;;;;;;;22.65;59.65;101098.75;5093401;28;20024;-43
2023/08/30 04:13:09;;;;;;;19.15;8.65;;;;;;;22.65;59.30;101096.03;5092319;28;20030;-43
2023/08/30 04:15:36;;;;;;;12.50;7.22;;;;;;;22.63;59.62;101106.41;5094730;28;20024;-43
2023/08/30 04:18:04;;;;;;;16.48;8.77;;;;;;;22.47;60.54;101096.69;5092991;28;20036;-42
2023/08/30 04:20:30;;;;;;;13.48;7.78;;;;;;;22.26;61.98;101104.09;5094322;28;20498;-42
2023/08/30 04:22:57;;;;;;;15.10;7.95;;;;;;;22.25;62.47;101108.75;5092042;28;20024;-42
2023/08/30 04:25:24;;;;;;;19.45;7.82;;;;;;;22.13;63.90;101108.25;5112036;28;20106;-43
2023/08/30 04:27:50;;;;;;;18.08;8.52;;;;;;;22.30;63.90;101107.91;5100418;28;20024;-42
2023/08/30 04:30:17;;;;;;;24.10;8.38;;;;;;;22.09;65.43;101102.47;5093994;28;20512;-43
2023/08/30 04:32:43;;;;;;;19.13;8.63;;;;;;;22.03;65.31;101109.03;5094190;28;20024;-43
2023/08/30 04:35:10;;;;;;;13.35;7.70;;;;;;;21.87;65.91;101116.44;5087296;28;20123;-43
2023/08/30 04:37:40;;;;;;;19.08;8.43;;;;;;;21.87;65.16;101116.44;5080861;28;20028;-43
2023/08/30 04:40:09;;;;;;;19.55;8.60;;;;;;;21.81;65.31;101120.25;5093544;28;20036;-43
2023/08/30 04:42:36;;;;;;;14.05;8.48;;;;;;;21.81;65.34;101122.97;5104049;28;20394;-42
2023/08/30 04:45:04;;;;;;;15.80;8.23;;;;;;;21.87;65.01;101124.59;5094284;28;20032;-44
2023/08/30 04:47:31;;;;;;;23.55;8.77;;;;;;;21.84;65.35;101117.00;5092312;28;20035;-43
2023/08/30 04:49:57;;;;;;;21.40;8.57;;;;;;;21.86;65.57;101117.53;5093667;28;20035;-44
2023/08/30 04:52:24;;;;;;;19.73;9.20;;;;;;;21.60;66.60;101126.81;5092714;28;20040;-42
2023/08/30 04:54:50;;;;;;;21.15;8.70;;;;;;;21.40;67.60;101118.63;5092614;28;20072;-42
2023/08/30 04:57:17;;;;;;;19.63;8.65;;;;;;;21.47;66.69;101113.72;5094007;28;20016;-42
2023/08/30 04:59:45;;;;;;;20.48;8.73;;;;;;;21.41;66.35;101114.81;5091974;28;20028;-43
2023/08/30 05:02:12;;;;;;;19.27;8.68;;;;;;;21.31;67.14;101111.00;5093535;28;20054;-44
2023/08/30 05:04:38;;;;;;;17.42;8.77;;;;;;;20.98;68.58;101106.00;5093629;28;20035;-42
2023/08/30 05:07:04;;;;;;;18.85;8.90;;;;;;;21.01;68.33;101110.94;5092741;28;20531;-43
2023/08/30 05:09:32;;;;;;;23.35;9.18;;;;;;;21.00;68.09;101106.56;5092322;28;20036;-44
2023/08/30 05:11:58;;;;;;;19.98;9.23;;;;;;;20.81;69.33;101107.06;5092193;28;20059;-44
2023/08/30 05:14:25;;;;;;;22.15;8.43;;;;;;;20.71;69.40;101109.78;5093389;28;20027;-44
2023/08/30 05:16:51;;;;;;;24.42;9.85;;;;;;;20.71;69.69;101109.78;5093478;28;20078;-43
2023/08/30 05:19:17;;;;;;;18.05;9.02;;;;;;;20.80;69.05;101110.88;5092209;28;20051;-45
2023/08/30 05:21:44;;;;;;;24.55;9.02;;;;;;;20.81;68.70;101107.06;5091415;28;20038;-44
2023/08/30 05:24:11;;;;;;;21.15;9.68;;;;;;;20.79;69.04;101101.06;5093438;28;20024;-43
2023/08/30 05:26:37;;;;;;;27.20;9.02;;;;;;;20.69;69.74;101097.50;5092514;28;20088;-42
2023/08/30 05:29:04;;;;;;;23.13;8.63;;;;;;;20.73;69.33;101095.91;5091704;28;20020;-42
2023/08/30 05:31:30;;;;;;;24.00;8.50;;;;;;;20.86;68.59;101098.09;5093140;28;20024;-43
2023/08/30 05:33:56;;;;;;;22.13;9.57;;;;;;;20.89;68.64;101103.00;5093138;28;20047;-43
2023/08/30 05:36:23;;;;;;;18.33;8.73;;;;;;;20.61;69.86;101120.59;5081449;28;20021;-43
2023/08/30 05:38:49;;;;;;;18.88;8.63;;;;;;;20.53;70.48;101102.06;5092492;28;20031;-43
2023/08/30 05:41:15;;;;;;;23.80;9.73;;;;;;;20.66;70.09;101112.47;5093090;28;20021;-46
2023/08/30 05:43:41;;;;;;;32.42;10.63;;;;;;;20.52;70.99;101114.03;5093011;28;20040;-43
2023/08/30 05:46:14;;;;;;;21.63;9.40;;;;;;;20.37;71.71;101119.38;5093256;28;20385;-43
2023/08/30 05:48:40;;;;;;;21.85;10.13;;;;;;;20.08;73.40;101110.78;5095429;28;20114;-43
2023/08/30 05:51:06;;;;;;;21.10;8.60;;;;;;;20.18;72.80;101108.94;5112908;28;20024;-43
2023/08/30 05:53:33;;;;;;;26.25;9.98;;;;;;;20.33;72.44;101112.84;5113174;28;20020;-44
2023/08/30 05:55:59;;;;;;;26.23;9.07;;;;;;;20.41;72.09;101109.59;5097676;28;20043;-44
2023/08/30 05:58:25;;;;;;;23.88;9.25;;;;;;;20.37;72.37;101119.38;5092454;28;20374;-43
2023/08/30 06:00:51;;;;;;;22.30;10.13;;;;;;;20.24;72.28;101112.50;5092542;28;20031;-44
2023/08/30 06:03:18;;;;;;;21.60;9.25;;;;;;;20.14;73.35;101112.44;5092289;28;20028;-43
2023/08/30 06:05:44;;;;;;;22.35;9.27;;;;;;;20.16;73.54;101115.75;5091150;28;20024;-43
2023/08/30 06:08:10;;;;;;;20.83;9.73;;;;;;;20.13;73.58;101119.78;5092393;28;20069;-42
2023/08/30 06:10:36;;;;;;;24.77;9.18;;;;;;;20.08;73.22;101114.31;5091776;28;20032;-44
2023/08/30 06:13:03;;;;;;;22.70;9.55;;;;;;;20.04;73.76;101121.34;5092210;28;20032;-43
2023/08/30 06:15:29;;;;;;;25.30;10.27;;;;;;;19.83;74.19;101114.16;5089868;28;20059;-42
2023/08/30 06:17:55;;;;;;;20.45;8.50;;;;;;;19.86;73.65;101114.44;5090349;28;20024;-44
2023/08/30 06:20:22;;;;;;;24.10;10.32;;;;;;;19.96;73.24;101110.97;5092205;28;20028;-43
2023/08/30 06:22:48;;;;;;;28.38;11.05;;;;;;;20.14;71.92;101102.38;5094942;28;20114;-42
2023/08/30 06:25:14;;;;;;;31.00;11.43;;;;;;;19.85;73.22;101109.28;5090316;28;20028;-43
2023/08/30 06:27:58;;;;;;;28.63;10.07;;;;;;;19.58;74.78;101115.56;5091545;28;20470;-42
2023/08/30 06:30:25;;;;;;;25.42;10.00;;;;;;;19.87;73.67;101107.13;5071911;28;20086;-43
2023/08/30 06:32:52;;;;;;;21.10;9.90;;;;;;;19.83;73.10;101106.03;5071784;28;20394;-42
2023/08/30 06:35:18;;;;;;;28.67;10.13;;;;;;;19.76;73.30;101098.88;5083473;28;20029;-43
2023/08/30 06:37:44;;;;;;;25.27;10.35;;;;;;;19.72;73.53;101103.22;5073015;28;20024;-42
2023/08/30 06:40:11;;;;;;;20.38;10.02;;;;;;;19.73;73.75;101104.03;5091810;28;20169;-42
2023/08/30 06:42:38;;;;;;;25.33;9.70;;;;;;;19.95;73.23;101101.22;5091018;28;20032;-42
2023/08/30 06:45:05;;;;;;;24.80;9.93;;;;;;;19.85;73.56;101099.22;5090278;28;20802;-43
2023/08/30 06:47:31;;;;;;;26.27;9.35;;;;;;;19.69;74.03;101102.91;5091797;28;20024;-42
2023/08/30 06:49:57;;;;;;;22.05;9.32;;;;;;;19.67;74.13;101100.47;5091106;28;20470;-42
2023/08/30 06:52:24;;;;;;;20.88;8.75;;;;;;;19.81;74.17;101097.28;5090887;28;20059;-42
2023/08/30 06:54:50;;;;;;;22.23;9.80;;;;;;;19.68;74.87;101098.56;5090619;28;20036;-43
2023/08/30 06:57:16;;;;;;;19.40;9.40;;;;;;;19.69;74.64;101092.88;5099843;28;20024;-43
2023/08/30 06:59:42;;;;;;;30.23;10.43;;;;;;;19.52;75.31;101092.97;5111283;28;20019;-42
2023/08/30 07:02:09;;;;;;;20.60;9.32;;;;;;;19.54;75.23;101098.13;5100418;28;20024;-42
2023/08/30 07:04:35;;;;;;;22.13;9.18;;;;;;;19.53;75.29;101097.31;5089540;28;20111;-41
2023/08/30 07:07:01;;;;;;;18.20;9.05;;;;;;;19.43;75.72;101091.84;5093864;28;20024;-46
2023/08/30 07:09:31;;;;;;;23.38;11.48;;;;;;;19.46;75.32;101087.78;5092451;28;20024;-42
2023/08/30 07:11:58;;;;;;;29.00;10.07;;;;;;;19.56;75.12;101092.47;5071055;28;20024;-42
2023/08/30 07:14:26;;;;;;;24.77;10.00;;;;;;;19.51;75.73;101088.63;5090961;28;20031;-44
2023/08/30 07:16:52;;;;;;;25.02;9.88;;;;;;;19.26;76.07;101089.22;5092812;28;20036;-43
2023/08/30 07:19:18;;;;;;;16.83;9.07;;;;;;;18.91;74.89;101091.59;5095516;28;20031;-43
2023/08/30 07:21:45;;;;;;;14.85;7.88;;;;;;;18.75;73.80;101090.59;5095536;28;20451;-43
2023/08/30 07:24:11;;;;;;;16.58;8.52;;;;;;;18.87;72.67;101087.75;5094298;28;20107;-42
2023/08/30 07:26:37;;;;;;;14.43;7.78;;;;;;;18.75;71.21;101087.91;5095794;28;20093;-42
2023/08/30 07:29:07;;;;;;;11.95;8.02;;;;;;;18.53;71.91;101084.34;5095437;28;20032;-41
2023/08/30 07:31:33;;;;;;;13.88;8.30;;;;;;;18.70;71.40;101082.41;5098526;28;20024;-42
2023/08/30 07:34:00;;;;;;;13.35;7.72;;;;;;;18.76;71.43;101092.25;5095163;28;20032;-42
2023/08/30 07:36:32;;;;;;;12.63;7.53;;;;;;;18.53;72.62;101090.59;5076149;28;20036;-41
2023/08/30 07:38:58;;;;;;;17.75;7.95;;;;;;;18.70;72.31;101094.06;5074950;28;20102;-41
2023/08/30 07:41:24;;;;;;;24.85;8.90;;;;;;;18.73;74.49;101082.75;5074687;28;20051;-42
2023/08/30 07:43:51;;;;;;;24.10;9.50;;;;;;;18.69;75.16;101095.16;5074545;28;20036;-41
2023/08/30 07:46:17;;;;;;;30.13;10.13;;;;;;;18.52;78.81;101097.09;5088012;28;20035;-43
2023/08/30 07:48:43;;;;;;;25.10;9.90;;;;;;;18.63;78.22;101098.84;5095183;28;20028;-41
2023/08/30 07:51:09;;;;;;;24.50;9.00;;;;;;;18.70;78.16;101090.53;5095273;28;20466;-42
2023/08/30 07:53:36;;;;;;;19.75;8.88;;;;;;;18.56;78.93;101095.53;5095094;28;20035;-41
2023/08/30 07:56:02;;;;;;;25.10;11.15;;;;;;;18.61;79.12;101098.28;5093924;28;20047;-42
2023/08/30 07:58:28;;;;;;;23.05;9.57;;;;;;;18.62;79.07;101099.13;5094858;28;20070;-41
2023/08/30 08:00:55;;;;;;;26.00;10.15;;;;;;;18.54;79.91;101094.94;5092103;28;20028;-41
2023/08/30 08:03:21;;;;;;;22.10;9.48;;;;;;;18.70;79.69;101091.38;5093763;28;20115;-42
2023/08/30 08:05:48;;;;;;;23.42;9.48;;;;;;;18.76;79.34;101102.28;5093637;28;20028;-42
2023/08/30 08:08:14;;;;;;;22.33;9.10;;;;;;;18.62;79.67;101101.81;5094467;28;20027;-43
2023/08/30 08:10:42;;;;;;;29.13;11.63;;;;;;;18.20;82.00;101105.06;5094790;28;20024;-42
2023/08/30 08:13:08;;;;;;;23.35;9.88;;;;;;;17.91;78.50;101101.69;5094707;28;20027;-41
2023/08/30 08:15:35;;;;;;;22.40;8.88;;;;;;;17.83;76.83;101099.41;5092607;28;20016;-42
2023/08/30 08:18:02;;;;;;;10.15;7.90;;;;;;;17.94;75.69;101096.59;5094033;28;20040;-42
2023/08/30 08:20:29;;;;;;;23.70;8.45;;;;;;;17.67;75.69;101099.13;5094534;28;20035;-41
2023/08/30 08:22:56;;;;;;;15.80;8.90;;;;;;;17.44;76.75;101099.31;5094279;28;20087;-41
2023/08/30 08:25:23;;;;;;;15.35;8.70;;;;;;;17.51;76.21;101094.53;5094460;28;20024;-41
2023/08/30 08:27:53;;;;;;;13.30;7.82;;;;;;;17.75;74.75;101094.41;5092412;28;20420;-41
2023/08/30 08:30:20;;;;;;;11.63;7.50;;;;;;;17.51;75.58;101094.53;5093926;28;20056;-42
2023/08/30 08:32:49;;;;;;;14.38;8.43;;;;;;;17.30;75.84;101096.06;5092056;28;20054;-42
2023/08/30 08:35:16;;;;;;;12.63;7.80;;;;;;;17.45;75.57;101084.69;5085982;28;20460;-43
2023/08/30 08:37:42;;;;;;;11.40;8.07;;;;;;;17.28;75.79;101081.16;5082446;28;20046;-44
2023/08/30 08:40:09;;;;;;;13.35;7.60;;;;;;;17.28;74.93;101086.56;5093997;28;20120;-43
2023/08/30 08:42:36;;;;;;;13.38;7.82;;;;;;;17.19;75.02;101083.44;5093960;28;20024;-42
2023/08/30 08:45:05;;;;;;;20.67;8.35;;;;;;;17.15;74.37;101085.78;5094060;28;20054;-42
2023/08/30 08:47:32;;;;;;;13.10;8.07;;;;;;;17.04;74.64;101075.88;5091374;28;20035;-42
2023/08/30 08:49:59;;;;;;;12.43;7.68;;;;;;;17.19;73.84;101066.38;5093286;28;20027;-42
2023/08/30 08:52:26;;;;;;;17.48;9.02;;;;;;;17.07;74.53;101064.56;5093537;28;20105;-42
2023/08/30 08:54:54;;;;;;;10.48;7.10;;;;;;;17.14;74.43;101070.63;5091346;28;20020;-42
2023/08/30 08:57:21;;;;;;;14.98;7.28;;;;;;;17.25;73.87;101071.63;5092488;28;20460;-42
2023/08/30 08:59:47;;;;;;;11.75;7.75;;;;;;;17.28;73.90;101075.75;5093575;28;20110;-42
2023/08/30 09:02:15;;;;;;;9.73;7.30;;;;;;;17.19;74.20;101069.91;5093601;28;20505;-42
2023/08/30 09:04:41;;;;;;;9.20;6.85;;;;;;;17.15;74.26;101064.16;5093601;28;20032;-42
2023/08/30 09:07:08;;;;;;;10.93;7.13;;;;;;;17.17;74.64;101061.22;5093608;28;20019;-42
2023/08/30 09:09:34;;;;;;;9.38;6.93;;;;;;;17.19;74.20;101064.50;5092020;28;20078;-41
2023/08/30 09:12:01;;;;;;;9.50;6.75;;;;;;;17.17;74.68;101058.53;5093503;28;20036;-42
2023/08/30 09:14:27;;;;;;;14.55;7.60;;;;;;;16.86;76.28;101063.38;5111732;28;20120;-41
2023/08/30 09:17:02;;;;;;;10.07;7.32;;;;;;;17.03;75.35;101060.69;5114041;28;20473;-42
2023/08/30 09:19:29;;;;;;;9.93;7.10;;;;;;;17.09;74.88;101059.72;5097087;28;20524;-41
2023/08/30 09:21:57;;;;;;;8.93;6.40;;;;;;;17.07;74.26;101056.47;5057582;28;20035;-41
2023/08/30 09:24:24;;;;;;;10.85;6.53;;;;;;;17.08;74.16;101052.69;5092827;28;20381;-41
2023/08/30 09:26:52;;;;;;;15.75;7.45;;;;;;;17.11;73.52;101054.91;5090279;28;20061;-41
2023/08/30 09:29:20;;;;;;;9.65;7.05;;;;;;;17.05;73.64;101052.38;5092036;28;20032;-41
2023/08/30 09:31:52;;;;;;;10.00;7.28;;;;;;;17.02;73.39;101053.66;5113363;28;20060;-41
2023/08/30 09:34:22;;;;;;;9.35;6.90;;;;;;;16.98;73.50;101052.50;5113503;28;20027;-41
2023/08/30 09:36:50;;;;;;;13.95;7.60;;;;;;;16.91;73.95;101051.84;5072845;28;20028;-41
2023/08/30 09:39:16;;;;;;;10.75;7.55;;;;;;;16.93;74.03;101055.09;5077126;28;20028;-40
2023/08/30 09:41:43;;;;;;;12.30;7.40;;;;;;;16.90;73.97;101055.63;5091877;28;20050;-41
2023/08/30 09:44:14;;;;;;;10.35;6.78;;;;;;;16.91;74.10;101043.72;5093253;28;20036;-41
2023/08/30 09:46:54;;;;;;;11.68;7.55;;;;;;;16.87;73.92;101058.78;5092773;28;20065;-41
2023/08/30 09:49:22;;;;;;;11.50;7.20;;;;;;;16.89;73.68;101062.09;5091662;28;20031;-41
2023/08/30 09:51:51;;;;;;;9.52;7.00;;;;;;;16.84;73.86;101062.00;5089478;28;20498;-41
2023/08/30 09:54:19;;;;;;;14.27;7.50;;;;;;;16.85;74.04;101052.81;5091448;28;20032;-41
2023/08/30 09:56:47;;;;;;;10.73;7.05;;;;;;;16.85;73.77;101052.81;5092430;28;20073;-41
2023/08/30 09:59:15;;;;;;;12.82;7.57;;;;;;;16.74;74.44;101053.69;5091258;28;20032;-42
2023/08/30 10:01:46;;;;;;;10.65;7.55;;;;;;;16.74;74.41;101054.50;5092517;28;20063;-42
2023/08/30 10:04:13;;;;;;;10.90;7.72;;;;;;;16.60;75.10;101067.47;5092202;28;20478;-41
2023/08/30 10:06:40;;;;;;;13.02;7.28;;;;;;;16.66;75.08;101060.28;5074175;28;20036;-41
2023/08/30 10:09:08;;;;;;;11.98;8.00;;;;;;;16.64;75.05;101057.78;5071925;28;20439;-41
2023/08/30 10:11:38;;;;;;;15.93;7.60;;;;;;;16.65;74.79;101055.91;5084079;28;20039;-41
2023/08/30 10:14:06;;;;;;;9.90;7.10;;;;;;;16.63;74.96;101063.44;5089156;28;20389;-41
2023/08/30 10:16:44;;;;;;;11.73;7.28;;;;;;;16.62;75.10;101059.94;5092208;28;20060;-41
2023/08/30 10:19:31;;;;;;;10.77;7.53;;;;;;;16.57;75.28;101061.72;5090447;28;20110;-40
2023/08/30 10:22:05;;;;;;;9.13;6.78;;;;;;;16.56;74.89;101050.09;5085761;28;20129;-42
2023/08/30 10:24:42;;;;;;;12.60;7.38;;;;;;;16.53;74.98;101055.13;5091945;28;20024;-42
2023/08/30 10:27:10;;;;;;;10.07;7.78;;;;;;;16.49;75.20;101054.81;5092404;28;20032;-42
2023/08/30 10:29:40;;;;;;;11.20;7.70;;;;;;;16.47;75.24;101061.50;5088866;28;20039;-41
2023/08/30 10:32:07;;;;;;;9.95;7.47;;;;;;;16.42;75.34;101054.09;5090641;28;20046;-41
2023/08/30 10:34:35;;;;;;;12.75;7.88;;;;;;;16.42;75.72;101050.59;5091775;28;20107;-41
2023/08/30 10:37:04;;;;;;;12.30;7.63;;;;;;;16.39;75.99;101049.19;5092255;28;20489;-41
2023/08/30 10:39:38;;;;;;;14.15;8.30;;;;;;;16.43;75.85;101058.44;5090216;28;20064;-41
2023/08/30 10:42:15;;;;;;;11.23;7.95;;;;;;;16.43;76.07;101049.53;5091913;28;20131;-40
2023/08/30 10:45:07;;;;;;;9.82;7.18;;;;;;;16.37;76.29;101048.59;5091818;28;20072;-40
2023/08/30 10:47:40;;;;;;;11.90;7.95;;;;;;;16.32;76.55;101048.50;5091712;28;20020;-40
2023/08/30 10:50:08;;;;;;;10.32;7.75;;;;;;;16.30;76.25;101050.63;5089304;28;20359;-41
2023/08/30 10:52:34;;;;;;;10.30;7.47;;;;;;;16.22;76.39;101043.72;5090854;28;20056;-42
2023/08/30 10:55:11;;;;;;;13.63;7.68;;;;;;;16.24;76.85;101036.19;5097359;28;20473;-41
2023/08/30 10:57:42;;;;;;;11.13;7.43;;;;;;;16.22;76.59;101038.31;5099233;28;20040;-42
2023/08/30 11:00:21;;;;;;;13.27;8.07;;;;;;;16.16;76.97;101038.44;5091898;28;20504;-41
2023/08/30 11:02:52;;;;;;;11.52;7.30;;;;;;;16.15;77.08;101026.00;5069623;28;20124;-42
2023/08/30 11:05:23;;;;;;;11.20;7.15;;;;;;;16.13;77.41;101031.63;5071459;28;20032;-42
2023/08/30 11:07:50;;;;;;;9.55;7.32;;;;;;;16.13;77.31;101036.22;5078895;28;20439;-42
2023/08/30 11:10:18;;;;;;;9.77;7.05;;;;;;;16.09;77.31;101027.75;5091518;28;20028;-44
2023/08/30 11:12:45;;;;;;;11.10;7.53;;;;;;;16.07;77.20;101027.19;5092703;28;20035;-42
2023/08/30 11:15:16;;;;;;;10.20;7.35;;;;;;;16.07;77.17;101024.50;5091199;28;20043;-42
2023/08/30 11:17:43;;;;;;;9.57;7.38;;;;;;;16.05;77.32;101032.84;5090099;28;20347;-43
2023/08/30 11:20:11;;;;;;;8.43;6.68;;;;;;;16.03;76.94;101024.13;5091326;28;20020;-42